Startpagina
METAR-TAF:

METAR-TAF

Vliegvelden :

Mendoza, Argentinië

breedte: 32-50S, lengte: 068-47W, hoogte: 705 m

Actueel weer

Dit bericht is 31 minuten geleden gemaakt, om 04:00 UTC
Wind 3 kt uit het zuiden
Temperatuur 23°C
Vochtigheid 47%
Druk 1009 hPa
Zicht 10 km of meer
geen wolken onder 1500 m en geen cumulonimbus

METAR: SAME 210400Z 18003KT CAVOK 23/11 Q1009

Tijdstip: 01:31 (04:31 UTC)

Verwachting

Dit bericht is 5 uur en het 31 minuten geleden gemaakt, om 23:00 UTC
Verwachting geldig van 21 om 00 UTC tot 21 om 24 UTC
Wind 5 kt uit het noordoosten
Zicht 10 km of meer
Weinig wolken op 4000 ft
Wijzigt naar
van 21 om 02 UTC tot 21 om 04 UTC
Wind 5 kt uit het zuidzuidwesten
Zicht 10 km of meer
geen wolken onder 1500 m en geen cumulonimbus
Wijzigt naar
van 21 om 14 UTC tot 21 om 16 UTC
Wind 10 kt uit het noorden
Zicht 10 km of meer
Weinig wolken op 4000 ft

TAF: SAME 202300Z 2100/2124 05005KT 9999 FEW040 TN20/2110Z TX38/2120Z BECMG 2102/2104 20005KT CAVOK BECMG 2114/2116 36010KT 9999 FEW040

Waarnemingen en weersverwachtingen van meer dan 4000 vliegvelden (METAR en TAF).

De beschikbare stations zijn de gele en rode punten op de kaart.

Ga met uw muis naar het station om de naam te zien.

Klik dan om waarnemingen en weersverwachtingen te zien.

kaart wijzigen: klik op de groene knoppen met een zwart kruis om in te zoomen, op de groene knop met een streepje om uit te zoomen of op de groene pijlen voor aangrenzende kaarten.


METAR-TAF: